createdAt,value
2024-03-05T00:00:29.302Z,12.50
2024-03-05T00:01:32.478Z,13.30
2024-03-05T00:02:37.484Z,12.40
2024-03-05T00:03:40.121Z,13.60
2024-03-05T00:04:42.322Z,13.00
2024-03-05T00:05:44.308Z,13.50
2024-03-05T00:06:46.501Z,14.50
2024-03-05T00:07:49.236Z,11.00
2024-03-05T00:08:51.454Z,13.40
2024-03-05T00:09:53.501Z,14.90
2024-03-05T00:10:55.720Z,10.78
2024-03-05T00:11:58.285Z,13.70
2024-03-05T00:13:00.664Z,14.60
2024-03-05T00:14:04.088Z,13.80
2024-03-05T00:15:07.675Z,16.30
2024-03-05T00:16:09.995Z,15.70
2024-03-05T00:17:12.266Z,4.50
2024-03-05T00:18:14.414Z,15.20
2024-03-05T00:19:16.555Z,15.70
2024-03-05T00:20:18.864Z,15.10
2024-03-05T00:21:20.832Z,15.60
2024-03-05T00:22:23.081Z,16.20
2024-03-05T00:23:25.206Z,15.90
2024-03-05T00:24:27.450Z,15.70
2024-03-05T00:25:32.030Z,15.00
2024-03-05T00:26:34.524Z,16.27
2024-03-05T00:27:37.025Z,16.40
2024-03-05T00:28:39.156Z,16.40
2024-03-05T00:29:41.832Z,15.10
2024-03-05T00:30:44.331Z,16.20
2024-03-05T00:31:46.564Z,15.70
2024-03-05T00:32:48.614Z,15.20
2024-03-05T00:33:50.912Z,15.60
2024-03-05T00:34:53.461Z,16.00
2024-03-05T00:35:55.767Z,15.40
2024-03-05T00:36:58.181Z,14.80
2024-03-05T00:38:00.216Z,15.20
2024-03-05T00:39:02.886Z,15.40
2024-03-05T00:40:06.111Z,14.36
2024-03-05T00:41:08.735Z,13.50
2024-03-05T00:42:10.876Z,15.10
2024-03-05T00:43:13.186Z,13.11
2024-03-05T00:44:15.416Z,13.80
2024-03-05T00:45:17.908Z,14.80
2024-03-05T00:46:21.140Z,14.10
2024-03-05T00:47:24.342Z,13.64
2024-03-05T00:48:27.103Z,15.20
2024-03-05T00:49:29.263Z,17.30
2024-03-05T00:50:31.429Z,14.10
2024-03-05T00:51:33.510Z,14.11
2024-03-05T00:52:36.032Z,14.90
2024-03-05T00:53:38.214Z,15.00
2024-03-05T00:54:40.365Z,15.56
2024-03-05T00:55:42.623Z,15.60
2024-03-05T00:56:45.282Z,14.60
2024-03-05T00:57:47.493Z,16.20
2024-03-05T00:58:49.716Z,15.00
2024-03-05T00:59:52.338Z,15.00
2024-03-05T01:00:55.088Z,14.40
2024-03-05T01:01:57.404Z,13.20
2024-03-05T01:03:00.417Z,14.70
2024-03-05T01:04:02.653Z,14.09
2024-03-05T01:05:05.516Z,13.40
2024-03-05T01:06:07.993Z,14.20
2024-03-05T01:07:10.086Z,15.00
2024-03-05T01:08:12.149Z,15.20
2024-03-05T01:09:14.162Z,14.33
2024-03-05T01:10:16.554Z,15.30
2024-03-05T01:11:18.954Z,15.80
2024-03-05T01:12:21.106Z,14.50
2024-03-05T01:13:23.301Z,13.67
2024-03-05T01:14:25.586Z,15.20
2024-03-05T01:15:27.844Z,15.20
2024-03-05T01:16:30.262Z,14.80
2024-03-05T01:17:33.661Z,14.90
2024-03-05T01:18:35.695Z,14.40
2024-03-05T01:19:37.947Z,14.67
2024-03-05T01:20:40.717Z,16.30
2024-03-05T01:21:43.057Z,15.20
2024-03-05T01:22:46.312Z,14.30
2024-03-05T01:23:49.123Z,15.40
2024-03-05T01:24:51.233Z,16.20
2024-03-05T01:25:53.664Z,16.60
2024-03-05T01:26:56.010Z,12.70
2024-03-05T01:27:58.585Z,16.50
2024-03-05T01:29:00.819Z,13.70
2024-03-05T01:30:04.622Z,14.30
2024-03-05T01:31:08.188Z,14.90
2024-03-05T01:32:10.346Z,15.80
2024-03-05T01:33:12.649Z,15.80
2024-03-05T01:34:15.808Z,16.80
2024-03-05T01:35:18.136Z,15.40
2024-03-05T01:36:20.616Z,15.20
2024-03-05T01:37:23.247Z,16.60
2024-03-05T01:38:25.839Z,15.40
2024-03-05T01:39:28.764Z,14.60
2024-03-05T01:40:31.558Z,16.30
2024-03-05T01:41:34.193Z,15.50
2024-03-05T01:42:36.330Z,15.80
2024-03-05T01:43:38.600Z,15.10
2024-03-05T01:44:40.701Z,16.40
2024-03-05T01:45:42.982Z,14.80
2024-03-05T01:46:50.979Z,15.40
2024-03-05T01:47:53.499Z,16.10
2024-03-05T01:48:56.267Z,15.50
2024-03-05T01:50:02.029Z,17.91
2024-03-05T01:51:05.019Z,15.90
2024-03-05T01:52:07.485Z,14.82
2024-03-05T01:53:12.422Z,14.60
2024-03-05T01:54:16.576Z,16.10
2024-03-05T01:55:23.437Z,17.90
2024-03-05T01:56:26.044Z,15.30
2024-03-05T01:57:28.953Z,14.90
2024-03-05T01:58:31.809Z,14.45
2024-03-05T01:59:35.008Z,15.80
2024-03-05T02:00:37.510Z,14.30
2024-03-05T02:01:39.753Z,15.90
2024-03-05T02:02:45.282Z,14.70
2024-03-05T02:03:47.719Z,15.00
2024-03-05T02:04:52.778Z,14.30
2024-03-05T02:05:58.613Z,14.40
2024-03-05T02:07:02.087Z,16.90
2024-03-05T02:08:04.890Z,14.40
2024-03-05T02:09:07.241Z,15.50
2024-03-05T02:10:10.629Z,15.60
2024-03-05T02:11:13.622Z,13.40
2024-03-05T02:12:16.493Z,15.60
2024-03-05T02:13:18.843Z,13.40
2024-03-05T02:14:21.405Z,16.00
2024-03-05T02:15:23.614Z,4.10
2024-03-05T02:16:26.348Z,13.40
2024-03-05T02:17:28.971Z,18.50
2024-03-05T02:18:30.973Z,14.40
2024-03-05T02:19:33.069Z,15.44
2024-03-05T02:20:35.720Z,15.30
2024-03-05T02:21:37.858Z,15.40
2024-03-05T02:22:41.046Z,14.20
2024-03-05T02:23:43.054Z,18.30
2024-03-05T02:24:45.444Z,15.44
2024-03-05T02:25:47.978Z,14.40
2024-03-05T02:26:50.829Z,14.60
2024-03-05T02:27:53.205Z,16.60
2024-03-05T02:28:57.729Z,15.10
2024-03-05T02:30:00.882Z,15.60
2024-03-05T02:31:03.430Z,15.80
2024-03-05T02:32:07.971Z,15.20
2024-03-05T02:33:11.111Z,17.10
2024-03-05T02:34:14.360Z,15.90
2024-03-05T02:35:17.092Z,13.90
2024-03-05T02:36:19.326Z,16.30
2024-03-05T02:37:22.014Z,15.00
2024-03-05T02:38:24.619Z,15.80
2024-03-05T02:39:27.300Z,16.00
2024-03-05T02:40:30.053Z,15.90
2024-03-05T02:41:32.214Z,15.80
2024-03-05T02:42:37.160Z,15.60
2024-03-05T02:43:39.504Z,15.40
2024-03-05T02:44:41.694Z,16.40
2024-03-05T02:45:44.000Z,15.70
2024-03-05T02:46:46.210Z,16.20
2024-03-05T02:47:48.594Z,16.20
2024-03-05T02:48:50.766Z,15.10
2024-03-05T02:49:53.122Z,16.60
2024-03-05T02:50:55.418Z,16.40
2024-03-05T02:51:57.813Z,8.80
2024-03-05T02:52:59.927Z,15.90
2024-03-05T02:54:01.994Z,15.90
2024-03-05T02:55:05.330Z,17.22
2024-03-05T02:56:09.079Z,15.50
2024-03-05T02:57:11.915Z,6.20
2024-03-05T02:58:13.924Z,16.20
2024-03-05T02:59:17.667Z,15.80
2024-03-05T03:00:20.653Z,15.18
2024-03-05T03:01:26.382Z,15.60
2024-03-05T08:53:47.249Z,23.70
2024-03-05T08:54:49.363Z,22.60
2024-03-05T08:55:51.403Z,22.56
2024-03-05T08:56:54.801Z,22.70
2024-03-05T08:57:56.945Z,22.20
2024-03-05T08:59:00.447Z,22.20
2024-03-05T09:00:13.851Z,21.60
2024-03-05T09:01:08.637Z,21.70
2024-03-05T09:02:11.133Z,22.00
2024-03-05T09:03:13.966Z,21.80
2024-03-05T09:04:16.767Z,21.80
2024-03-05T09:05:19.179Z,20.80
2024-03-05T09:06:21.377Z,21.60
2024-03-05T09:07:24.346Z,21.22
2024-03-05T09:08:26.856Z,19.80
2024-03-05T09:09:29.031Z,21.40
2024-03-05T09:10:31.474Z,15.90
2024-03-05T09:11:33.638Z,21.30
2024-03-05T09:12:36.306Z,22.50
2024-03-05T09:13:42.968Z,18.20
2024-03-05T09:14:45.483Z,20.70
2024-03-05T09:15:47.586Z,21.50
2024-03-05T09:16:49.970Z,21.10
2024-03-05T09:17:52.431Z,21.00
2024-03-05T09:18:54.671Z,20.20
2024-03-05T09:19:57.054Z,21.80
2024-03-05T09:20:59.291Z,20.90
2024-03-05T09:22:01.217Z,3.22
2024-03-05T09:23:03.882Z,21.33
2024-03-05T09:24:06.677Z,21.00
2024-03-05T09:25:09.570Z,19.80
2024-03-05T09:26:12.341Z,20.80
2024-03-05T09:27:14.886Z,20.60
2024-03-05T09:28:17.344Z,20.70
2024-03-05T09:29:20.601Z,21.60
2024-03-05T09:30:23.406Z,21.50
2024-03-05T09:31:25.697Z,22.00
2024-03-05T09:32:28.375Z,21.90
2024-03-05T09:33:31.713Z,21.70
2024-03-05T09:34:34.628Z,20.30
2024-03-05T09:35:36.738Z,20.40
2024-03-05T09:36:39.463Z,21.20
2024-03-05T09:37:43.176Z,21.40
2024-03-05T09:38:45.573Z,21.30
2024-03-05T09:39:48.369Z,21.10
2024-03-05T09:40:51.730Z,21.27
2024-03-05T09:41:53.995Z,21.20
2024-03-05T09:42:59.915Z,21.80
2024-03-05T09:44:02.181Z,19.80
2024-03-05T09:45:05.869Z,21.90
2024-03-05T09:46:09.376Z,21.40
2024-03-05T09:47:13.747Z,19.50
2024-03-05T09:48:18.622Z,19.30
2024-03-05T09:49:23.387Z,21.80
2024-03-05T09:50:26.180Z,20.90
2024-03-05T09:51:30.038Z,21.10
2024-03-05T09:52:32.838Z,21.50
2024-03-05T09:53:35.584Z,20.00
2024-03-05T09:54:38.426Z,21.10
2024-03-05T09:55:41.493Z,22.09
2024-03-05T09:56:45.696Z,21.40
2024-03-05T09:57:49.151Z,21.00
2024-03-05T09:58:52.190Z,21.10
2024-03-05T09:59:55.450Z,21.70
2024-03-05T10:01:00.728Z,22.10
2024-03-05T10:02:03.357Z,21.40
2024-03-05T10:03:07.264Z,20.70
2024-03-05T10:04:15.268Z,21.50
2024-03-05T10:05:18.603Z,21.90
2024-03-05T10:06:20.995Z,22.60
2024-03-05T10:07:27.513Z,21.90
2024-03-05T10:08:30.348Z,21.00
2024-03-05T10:09:32.502Z,21.50
2024-03-05T10:10:34.987Z,18.40
2024-03-05T10:11:38.186Z,21.40
2024-03-05T10:12:41.230Z,15.30
2024-03-05T10:13:43.697Z,18.00
2024-03-05T10:14:46.329Z,22.00
2024-03-05T10:15:48.662Z,22.30
2024-03-05T10:16:54.847Z,21.50
2024-03-05T10:17:57.217Z,21.40
2024-03-05T10:18:59.549Z,22.00
2024-03-05T10:20:01.976Z,22.60
2024-03-05T10:21:22.606Z,22.20
2024-03-05T10:22:24.800Z,23.60
2024-03-05T10:23:29.199Z,22.50
2024-03-05T10:24:31.569Z,22.20
2024-03-05T10:25:37.032Z,21.20
2024-03-05T10:26:40.134Z,21.50
2024-03-05T10:27:50.099Z,21.90
2024-03-05T10:28:52.864Z,20.90
2024-03-05T10:29:55.234Z,21.70
2024-03-05T10:31:00.898Z,23.00
2024-03-05T10:32:06.748Z,21.40
2024-03-05T10:33:10.370Z,22.10
2024-03-05T10:34:14.775Z,22.80
2024-03-05T10:35:16.966Z,22.60
2024-03-05T10:37:36.931Z,20.40
2024-03-05T10:38:39.997Z,23.20
2024-03-05T10:39:42.953Z,23.00
2024-03-05T10:40:47.275Z,1.18
2024-03-05T10:41:54.152Z,21.80
2024-03-05T10:42:58.699Z,23.00
2024-03-05T10:44:02.256Z,22.20
2024-03-05T10:45:07.801Z,22.40
2024-03-05T10:46:11.628Z,22.00
2024-03-05T10:47:14.352Z,23.20
2024-03-05T10:48:18.068Z,23.50
2024-03-05T10:49:22.215Z,22.50
2024-03-05T10:50:29.858Z,23.00
2024-03-05T10:51:40.309Z,22.90
2024-03-05T10:52:44.065Z,20.70
2024-03-05T10:53:49.493Z,12.70
2024-03-05T10:54:55.421Z,23.00
2024-03-05T10:55:58.263Z,23.60
2024-03-05T10:57:01.441Z,23.00
2024-03-05T10:58:05.364Z,22.90
2024-03-05T10:59:08.141Z,23.50
2024-03-05T11:00:12.910Z,20.40
2024-03-05T11:01:23.220Z,22.20
2024-03-05T11:02:26.137Z,21.50
2024-03-05T11:03:40.106Z,23.50
2024-03-05T11:04:42.818Z,23.70
2024-03-05T11:05:51.492Z,23.10
2024-03-05T11:08:18.166Z,23.90
2024-03-05T11:09:23.048Z,23.00
2024-03-05T11:10:27.497Z,22.40
2024-03-05T11:11:30.569Z,22.90
2024-03-05T11:12:33.789Z,23.00
2024-03-05T11:13:36.857Z,23.00
2024-03-05T11:14:40.471Z,22.40
2024-03-05T11:15:43.923Z,22.30
2024-03-05T11:17:07.881Z,22.90
2024-03-05T11:18:33.446Z,22.20
2024-03-05T11:20:53.436Z,22.00
2024-03-05T11:21:56.013Z,22.50
2024-03-05T11:22:58.234Z,20.80
2024-03-05T11:24:02.926Z,21.60
2024-03-05T11:25:06.588Z,20.60
2024-03-05T11:26:20.580Z,21.00
2024-03-05T11:27:24.370Z,22.00
2024-03-05T11:28:27.973Z,21.80
2024-03-05T11:29:33.719Z,22.20
2024-03-05T11:30:36.040Z,21.90
2024-03-05T11:31:38.186Z,21.70
2024-03-05T11:32:40.590Z,22.33
2024-03-05T11:33:46.928Z,22.20
2024-03-05T11:34:52.918Z,21.20
2024-03-05T11:35:57.541Z,21.00
2024-03-05T11:37:11.218Z,22.40
2024-03-05T11:38:17.924Z,20.50
2024-03-05T11:39:20.636Z,20.50
2024-03-05T11:40:32.071Z,19.30
2024-03-05T11:41:40.605Z,17.00
2024-03-05T11:42:46.616Z,18.10
2024-03-05T11:43:49.457Z,13.70
2024-03-05T11:44:54.720Z,17.45
2024-03-05T11:45:57.437Z,18.10
2024-03-05T11:46:59.696Z,17.60
2024-03-05T11:48:04.117Z,17.60
2024-03-05T11:49:07.724Z,16.00
2024-03-05T11:50:10.880Z,16.30
2024-03-05T11:51:13.590Z,16.40
2024-03-05T11:52:18.031Z,16.30
2024-03-05T11:53:20.317Z,16.70
2024-03-05T11:54:25.028Z,15.70
2024-03-05T11:55:28.176Z,16.30
2024-03-05T11:56:31.796Z,16.64
2024-03-05T11:57:34.110Z,16.90
2024-03-05T11:58:36.690Z,18.20
2024-03-05T11:59:40.859Z,17.40
2024-03-05T12:01:45.260Z,15.90
2024-03-05T12:04:07.363Z,16.10
2024-03-05T12:05:12.467Z,15.90
2024-03-05T12:06:18.604Z,15.20
2024-03-05T12:07:21.539Z,16.10
2024-03-05T12:08:24.405Z,16.09
2024-03-05T12:09:26.565Z,15.30
2024-03-05T12:10:30.576Z,16.20
2024-03-05T12:11:32.984Z,15.10
2024-03-05T12:12:35.509Z,16.20
2024-03-05T12:13:38.247Z,14.50
2024-03-05T12:14:52.458Z,14.60
2024-03-05T12:15:54.856Z,15.10
2024-03-05T12:16:59.314Z,15.40
2024-03-05T12:18:09.056Z,15.50
2024-03-05T12:19:11.334Z,16.40
2024-03-05T12:20:20.828Z,14.60
2024-03-05T12:21:26.988Z,15.00
2024-03-05T12:22:27.411Z,16.00
2024-03-05T12:23:41.287Z,15.70
2024-03-05T12:24:33.764Z,15.30
2024-03-05T12:25:36.784Z,14.30
2024-03-05T12:26:39.307Z,14.20
2024-03-05T12:27:46.819Z,14.10
2024-03-05T12:28:49.975Z,16.70
2024-03-05T12:29:52.534Z,17.20
2024-03-05T12:30:55.884Z,17.10
2024-03-05T12:32:00.210Z,17.40
2024-03-05T12:33:02.593Z,16.70
2024-03-05T12:34:04.783Z,18.44
2024-03-05T12:35:07.783Z,15.90
2024-03-05T12:36:10.584Z,16.80
2024-03-05T12:37:13.254Z,15.50
2024-03-05T12:38:15.809Z,14.50
2024-03-05T12:39:18.870Z,16.30
2024-03-05T12:40:22.911Z,15.50
2024-03-05T12:41:26.189Z,12.10
2024-03-05T12:42:28.853Z,17.70
2024-03-05T12:43:31.644Z,20.20
2024-03-05T12:44:34.898Z,18.10
2024-03-05T12:45:38.022Z,16.80
2024-03-05T12:46:40.394Z,17.18
2024-03-05T12:47:55.430Z,18.60
2024-03-05T12:48:59.555Z,16.50
2024-03-05T12:50:04.923Z,18.50
2024-03-05T12:51:11.250Z,17.60
2024-03-05T12:52:19.773Z,17.40
2024-03-05T12:53:23.821Z,16.40
2024-03-05T12:54:26.642Z,17.00
2024-03-05T12:55:31.984Z,12.30
2024-03-05T12:56:44.524Z,16.50
2024-03-05T12:57:49.561Z,13.80
2024-03-05T12:58:53.867Z,15.90
2024-03-05T13:00:04.815Z,15.80
2024-03-05T13:01:08.503Z,15.80
2024-03-05T13:02:13.152Z,16.90
2024-03-05T13:03:18.000Z,17.30
2024-03-05T13:04:22.577Z,18.50
2024-03-05T13:05:26.632Z,15.80
2024-03-05T13:06:32.263Z,10.20
2024-03-05T13:07:35.898Z,17.20
2024-03-05T13:08:38.602Z,18.00
2024-03-05T13:09:40.833Z,15.10
2024-03-05T13:10:43.432Z,16.30
2024-03-05T13:11:47.146Z,16.30
2024-03-05T13:12:49.508Z,17.00
2024-03-05T13:13:51.570Z,17.10
2024-03-05T13:14:53.873Z,17.11
2024-03-05T13:15:56.153Z,16.00
2024-03-05T13:16:59.840Z,16.70
2024-03-05T13:18:02.575Z,16.90
2024-03-05T13:19:05.402Z,17.00
2024-03-05T13:20:08.624Z,19.45
2024-03-05T13:21:10.810Z,19.50
2024-03-05T13:22:14.350Z,17.90
2024-03-05T13:23:18.982Z,16.11
2024-03-05T13:24:21.780Z,16.00
2024-03-05T13:25:26.155Z,18.20
2024-03-05T13:26:28.861Z,17.10
2024-03-05T13:27:31.370Z,17.60
2024-03-05T13:28:33.627Z,18.30
2024-03-05T13:29:35.934Z,17.50
2024-03-05T13:30:38.133Z,19.20
2024-03-05T13:31:44.144Z,17.67
2024-03-05T13:32:48.741Z,18.30
2024-03-05T13:33:51.420Z,18.73
2024-03-05T13:34:53.503Z,18.90
2024-03-05T13:35:56.071Z,17.30
2024-03-05T13:36:58.749Z,19.60
2024-03-05T13:38:01.757Z,17.50
2024-03-05T13:39:05.926Z,16.64
2024-03-05T13:40:10.116Z,18.30
2024-03-05T13:41:12.951Z,18.20
2024-03-05T13:42:17.561Z,18.30
2024-03-05T13:43:19.701Z,16.78
2024-03-05T13:44:22.160Z,19.40
2024-03-05T13:45:24.044Z,15.20
2024-03-05T13:46:26.348Z,18.33
2024-03-05T13:47:31.513Z,17.20
2024-03-05T13:48:32.752Z,17.20
2024-03-05T13:49:35.146Z,18.70
2024-03-05T13:50:37.554Z,16.30
2024-03-05T13:51:40.272Z,16.30
2024-03-05T13:52:44.358Z,15.90
2024-03-05T13:53:46.553Z,15.60
2024-03-05T13:54:49.609Z,16.20
2024-03-05T13:57:02.386Z,16.70
2024-03-05T13:58:04.590Z,16.60
2024-03-05T13:59:06.959Z,16.30
2024-03-05T14:00:11.765Z,16.00
2024-03-05T14:01:16.751Z,16.90
2024-03-05T14:02:19.166Z,11.50
2024-03-05T14:03:21.828Z,9.40
2024-03-05T14:04:24.976Z,16.10
2024-03-05T14:05:27.007Z,16.20
2024-03-05T14:06:29.287Z,17.60
2024-03-05T14:07:33.722Z,18.20
2024-03-05T14:08:36.020Z,17.80
2024-03-05T14:09:38.372Z,19.30
2024-03-05T14:10:41.664Z,19.60
2024-03-05T14:11:43.788Z,17.64
2024-03-05T14:12:46.470Z,18.00
2024-03-05T14:13:49.237Z,16.90
2024-03-05T14:14:51.523Z,18.10
2024-03-05T14:15:54.180Z,15.90
2024-03-05T14:16:57.046Z,18.30
2024-03-05T14:18:01.537Z,19.09
2024-03-05T14:19:03.792Z,17.50
2024-03-05T14:20:08.125Z,17.20
2024-03-05T14:21:10.581Z,17.60
2024-03-05T14:22:13.757Z,17.20
2024-03-05T14:23:15.953Z,17.30
2024-03-05T14:24:18.609Z,20.90
2024-03-05T14:25:23.166Z,21.50
2024-03-05T14:26:26.038Z,19.70
2024-03-05T14:27:28.109Z,18.00
2024-03-05T14:28:31.010Z,19.40
2024-03-05T14:29:34.232Z,17.27
2024-03-05T14:30:36.409Z,18.50
2024-03-05T14:31:39.770Z,19.50
2024-03-05T14:32:43.037Z,20.10
2024-03-05T14:33:46.066Z,18.40
2024-03-05T14:34:49.462Z,17.40
2024-03-05T14:35:52.117Z,16.80
2024-03-05T14:36:54.707Z,17.00
2024-03-05T14:37:58.041Z,16.30
2024-03-05T14:39:00.441Z,17.60
2024-03-05T14:40:02.891Z,16.10
2024-03-05T14:41:05.703Z,15.90
2024-03-05T14:42:09.294Z,14.90
2024-03-05T14:43:11.925Z,18.00
2024-03-05T14:44:14.028Z,15.56
2024-03-05T14:45:17.313Z,16.00
2024-03-05T14:46:20.488Z,16.80
2024-03-05T14:47:22.642Z,15.73
2024-03-05T14:48:25.769Z,18.60
2024-03-05T14:49:27.938Z,19.30
2024-03-05T14:50:30.211Z,17.80
2024-03-05T14:51:32.881Z,16.50
2024-03-05T14:52:35.328Z,18.80
2024-03-05T14:53:37.627Z,19.80
2024-03-05T14:54:39.772Z,14.10
2024-03-05T14:55:41.939Z,20.50
2024-03-05T14:56:44.586Z,18.70
2024-03-05T14:57:46.802Z,18.90
2024-03-05T14:58:49.014Z,19.40
2024-03-05T14:59:51.656Z,20.10
2024-03-05T15:00:53.931Z,21.00
2024-03-05T15:01:56.442Z,20.80
2024-03-05T15:02:59.384Z,21.00
2024-03-05T15:04:01.741Z,20.80
2024-03-05T15:05:04.850Z,20.30
2024-03-05T15:06:07.672Z,21.50
2024-03-05T15:07:09.939Z,20.20
2024-03-05T15:08:12.217Z,21.60
2024-03-05T15:09:15.028Z,20.40
2024-03-05T15:10:17.737Z,20.80
2024-03-05T15:11:20.355Z,20.60
2024-03-05T15:12:23.017Z,19.80
2024-03-05T15:13:25.241Z,20.40
2024-03-05T15:14:27.368Z,19.70
2024-03-05T15:15:29.966Z,21.11
2024-03-05T15:16:32.713Z,21.64
2024-03-05T15:17:36.265Z,20.90
2024-03-05T15:18:38.572Z,21.10
2024-03-05T15:19:40.740Z,19.80
2024-03-05T15:20:43.389Z,1.10
2024-03-05T15:21:46.684Z,16.60
2024-03-05T15:22:49.385Z,17.40
2024-03-05T15:23:52.089Z,17.00
2024-03-05T15:24:54.277Z,10.80
2024-03-05T15:25:56.585Z,16.80
2024-03-05T15:27:05.292Z,16.40
2024-03-05T15:28:05.276Z,16.00
2024-03-05T15:29:07.791Z,15.90
2024-03-05T15:30:12.295Z,15.70
2024-03-05T15:31:15.160Z,16.20
2024-03-05T15:32:17.355Z,18.00
2024-03-05T15:33:19.464Z,16.90
2024-03-05T15:34:21.638Z,8.20
2024-03-05T15:35:24.115Z,16.78
2024-03-05T15:36:26.730Z,17.36
2024-03-05T15:37:29.409Z,17.30
2024-03-05T15:38:32.447Z,16.00
2024-03-05T15:39:35.016Z,16.73
2024-03-05T15:40:37.764Z,15.00
2024-03-05T15:41:40.073Z,16.60
2024-03-05T15:42:57.365Z,19.00
2024-03-05T15:43:59.768Z,16.70
2024-03-05T15:45:02.500Z,8.60
2024-03-05T15:46:05.517Z,17.10
2024-03-05T15:47:08.295Z,15.18
2024-03-05T15:48:10.485Z,13.60
2024-03-05T15:49:13.581Z,18.00
2024-03-05T15:50:18.482Z,18.70
2024-03-05T15:51:20.577Z,17.10
2024-03-05T15:52:22.685Z,18.36
2024-03-05T15:53:26.210Z,17.90
2024-03-05T15:54:28.357Z,18.30
2024-03-05T15:55:31.765Z,18.27
2024-03-05T15:56:34.179Z,16.20
2024-03-05T15:57:37.573Z,17.67
2024-03-05T15:58:41.079Z,17.70
2024-03-05T15:59:46.932Z,18.20
2024-03-05T16:00:49.330Z,17.30
2024-03-05T16:01:51.913Z,18.70
2024-03-05T16:04:43.113Z,19.20
2024-03-05T16:05:33.461Z,18.60
2024-03-05T16:06:34.680Z,19.30
2024-03-05T16:07:36.922Z,17.60
2024-03-05T16:08:40.125Z,18.00
2024-03-05T16:09:42.226Z,16.30
2024-03-05T16:10:48.555Z,18.80
2024-03-05T16:11:48.614Z,16.90
2024-03-05T16:12:52.600Z,17.09
2024-03-05T16:13:55.076Z,19.20
2024-03-05T16:14:57.893Z,16.90
2024-03-05T16:16:00.231Z,18.60
2024-03-05T16:17:02.568Z,16.90
2024-03-05T16:18:05.708Z,19.40
2024-03-05T16:19:08.118Z,18.18
2024-03-05T16:20:10.738Z,19.70
2024-03-05T16:21:13.373Z,17.70
2024-03-05T16:22:16.032Z,20.90
2024-03-05T16:23:18.477Z,20.10
2024-03-05T16:24:20.516Z,20.50
2024-03-05T16:25:27.659Z,21.70
2024-03-05T16:26:31.970Z,20.40
2024-03-05T16:27:35.544Z,21.00
2024-03-05T16:28:38.411Z,21.10
2024-03-05T16:29:40.674Z,20.27
2024-03-05T16:30:43.670Z,20.00
2024-03-05T16:31:45.891Z,20.18
2024-03-05T16:32:48.328Z,20.50
2024-03-05T16:33:50.990Z,15.40
2024-03-05T16:34:53.107Z,19.50
2024-03-05T16:35:55.256Z,18.67
2024-03-05T16:36:57.483Z,17.60
2024-03-05T16:38:01.261Z,17.50
2024-03-05T16:39:04.153Z,19.10
2024-03-05T16:40:09.537Z,19.10
2024-03-05T16:41:11.823Z,19.70
2024-03-05T16:42:14.579Z,19.20
2024-03-05T16:43:18.258Z,19.70
2024-03-05T16:44:20.909Z,20.50
2024-03-05T16:45:24.483Z,19.30
2024-03-05T16:46:26.904Z,21.40
2024-03-05T16:47:29.538Z,20.70
2024-03-05T16:48:31.671Z,21.00
2024-03-05T16:49:34.288Z,21.67
2024-03-05T16:50:37.691Z,21.45
2024-03-05T16:51:40.156Z,21.50
2024-03-05T16:52:47.283Z,22.40
2024-03-05T16:53:49.934Z,20.50
2024-03-05T16:54:51.990Z,19.20
2024-03-05T16:55:54.619Z,20.80
2024-03-05T16:56:57.248Z,20.70
2024-03-05T16:57:59.464Z,17.90
2024-03-05T16:59:02.334Z,20.40
2024-03-05T17:01:16.772Z,18.90
2024-03-05T17:02:19.180Z,20.40
2024-03-05T17:03:22.035Z,18.90
2024-03-05T17:04:24.316Z,17.55
2024-03-05T17:05:28.824Z,18.20
2024-03-05T17:06:31.824Z,17.80
2024-03-05T17:07:34.491Z,18.27
2024-03-05T17:08:37.118Z,17.60
2024-03-05T17:09:39.775Z,18.00
2024-03-05T17:10:42.710Z,17.90
2024-03-05T17:11:44.816Z,18.80
2024-03-05T17:12:48.313Z,18.60
2024-03-05T17:13:51.054Z,17.50
2024-03-05T17:14:53.371Z,19.10
2024-03-05T17:15:56.519Z,20.90
2024-03-05T17:16:59.099Z,20.00
2024-03-05T17:18:04.868Z,19.50
2024-03-05T17:19:06.980Z,18.10
2024-03-05T17:20:10.789Z,20.60
2024-03-05T17:21:13.061Z,18.90
2024-03-05T17:22:15.735Z,17.60
2024-03-05T17:23:22.243Z,16.30
2024-03-05T17:24:23.933Z,18.70
2024-03-05T17:25:28.551Z,18.70
2024-03-05T17:26:31.702Z,18.50
2024-03-05T17:27:34.135Z,19.18
2024-03-05T17:28:36.560Z,19.00
2024-03-05T17:29:40.450Z,18.30
2024-03-05T17:30:42.771Z,17.40
2024-03-05T17:31:46.818Z,16.50
2024-03-05T17:32:49.782Z,18.40
2024-03-05T17:33:51.929Z,19.45
2024-03-05T17:34:54.939Z,18.44
2024-03-05T17:35:59.027Z,19.00
2024-03-05T17:37:02.536Z,18.90
2024-03-05T17:38:05.284Z,18.70
2024-03-05T17:39:07.577Z,18.80
2024-03-05T17:40:11.784Z,16.70
2024-03-05T17:41:14.150Z,19.00
2024-03-05T17:42:16.688Z,19.55
2024-03-05T17:43:19.990Z,17.80
2024-03-05T17:44:22.721Z,18.80
2024-03-05T17:45:25.108Z,18.50
2024-03-05T17:46:28.520Z,18.90
2024-03-05T17:48:45.657Z,20.60
2024-03-05T17:49:48.102Z,15.90
2024-03-05T17:50:50.986Z,20.00
2024-03-05T17:51:53.765Z,13.20
2024-03-05T17:52:56.389Z,20.40
2024-03-05T17:53:59.054Z,20.70
2024-03-05T17:55:01.911Z,20.40
2024-03-05T17:56:05.033Z,19.50
2024-03-05T17:57:08.299Z,20.90
2024-03-05T17:58:11.745Z,20.60
2024-03-05T17:59:14.317Z,21.50
2024-03-05T18:00:19.449Z,20.30
2024-03-05T18:01:22.378Z,21.40
2024-03-05T18:02:24.797Z,20.80
2024-03-05T18:03:27.384Z,21.60
2024-03-05T18:04:29.606Z,21.30
2024-03-05T18:05:32.243Z,22.50
2024-03-05T18:06:35.538Z,21.70
2024-03-05T18:07:38.791Z,21.10
2024-03-05T18:08:40.911Z,20.60
2024-03-05T18:09:43.065Z,19.56
2024-03-05T18:10:46.570Z,20.40
2024-03-05T18:11:52.299Z,20.90
2024-03-05T18:12:55.241Z,20.20
2024-03-05T18:13:58.447Z,19.18
2024-03-05T18:15:01.224Z,17.50
2024-03-05T18:16:04.770Z,19.20
2024-03-05T18:17:08.964Z,19.20
2024-03-05T18:18:11.269Z,20.10
2024-03-05T18:19:14.306Z,17.56
2024-03-05T18:20:20.088Z,20.50
2024-03-05T18:21:22.717Z,20.10
2024-03-05T18:22:26.024Z,18.09
2024-03-05T18:23:29.452Z,19.70
2024-03-05T18:24:32.120Z,19.10
2024-03-05T18:25:37.361Z,19.40
2024-03-05T18:26:40.750Z,20.20
2024-03-05T18:27:54.968Z,19.20
2024-03-05T18:28:57.327Z,18.20
2024-03-05T18:29:59.469Z,18.30
2024-03-05T18:31:02.692Z,17.50
2024-03-05T18:32:05.169Z,20.20
2024-03-05T18:33:09.673Z,17.90
2024-03-05T18:34:12.472Z,17.20
2024-03-05T18:35:15.498Z,18.20
2024-03-05T18:36:18.580Z,17.10
2024-03-05T18:37:20.912Z,19.50
2024-03-05T18:38:29.014Z,19.70
2024-03-05T18:39:28.343Z,19.40
2024-03-05T18:40:31.524Z,18.90
2024-03-05T18:41:34.059Z,19.73
2024-03-05T18:42:36.185Z,17.10
2024-03-05T18:43:38.325Z,14.33
2024-03-05T18:44:40.524Z,19.11
2024-03-05T18:45:45.020Z,17.20
2024-03-05T18:46:47.315Z,19.00
2024-03-05T18:47:59.199Z,20.33
2024-03-05T18:48:55.431Z,19.40
2024-03-05T18:49:58.252Z,20.30
2024-03-05T18:51:01.082Z,19.73
2024-03-05T18:52:03.766Z,20.80
2024-03-05T18:53:07.758Z,21.10
2024-03-05T18:54:11.217Z,20.40
2024-03-05T18:55:14.533Z,22.40
2024-03-05T18:56:18.214Z,20.80
2024-03-05T18:57:20.928Z,20.50
2024-03-05T18:58:23.987Z,21.70
2024-03-05T18:59:26.306Z,22.45
2024-03-05T19:00:29.033Z,20.10
2024-03-05T19:01:31.240Z,17.20
2024-03-05T19:02:34.629Z,18.30
2024-03-05T19:03:37.547Z,21.00
2024-03-05T19:04:40.792Z,22.00
2024-03-05T19:05:43.894Z,21.20
2024-03-05T19:06:46.441Z,19.60
2024-03-05T19:07:51.479Z,18.40
2024-03-05T19:08:54.432Z,18.10
2024-03-05T19:09:56.785Z,21.30
2024-03-05T19:10:59.662Z,20.20
2024-03-05T19:12:01.967Z,19.90
2024-03-05T19:13:04.473Z,21.60
2024-03-05T19:14:06.657Z,19.40
2024-03-05T19:15:10.087Z,22.33
2024-03-05T19:16:13.691Z,23.40
2024-03-05T19:17:15.870Z,22.10
2024-03-05T19:18:18.239Z,22.30
2024-03-05T19:19:20.701Z,22.20
2024-03-05T19:20:23.259Z,21.80
2024-03-05T19:21:26.262Z,21.50
2024-03-05T19:22:28.489Z,16.82
2024-03-05T19:23:31.017Z,19.78
2024-03-05T19:24:33.224Z,21.20
2024-03-05T19:25:37.236Z,20.00
2024-03-05T19:26:39.649Z,21.10
2024-03-05T19:27:43.453Z,20.89
2024-03-05T19:28:46.356Z,19.10
2024-03-05T19:29:48.993Z,11.45
2024-03-05T19:30:51.478Z,18.70
2024-03-05T19:31:53.668Z,20.20
2024-03-05T19:32:55.684Z,19.70
2024-03-05T19:33:58.351Z,20.22
2024-03-05T19:35:02.619Z,18.70
2024-03-05T19:36:05.831Z,19.00
2024-03-05T19:37:08.451Z,20.45
2024-03-05T19:38:10.699Z,19.80
2024-03-05T19:39:13.459Z,14.50